Terminal Aerodrome Forecast
Issued by NWS

Home | Current Version | Previous Version | Text Only | Print | Product List | Glossary On
Versions: 1 2 3 4 5 6 7 8 9 10 11 12 13 14 15 16
000
FTUS43 KLSX 300800 AAA
TAFSUS
TAF AMD
KSUS 300805Z 3008/3106 00000KT P6SM BKN090
      TEMPO 3010/3013 3SM BR
     FM301300 VRB03KT P6SM BKN090
     FM301600 VRB05KT P6SM SCT060=

USA.gov is the U.S. government's official web portal to all federal, state and local government web resources and services.